createdAt,value
2023-03-13T00:02:06.170Z,99.90
2023-03-13T00:04:34.620Z,99.90
2023-03-13T00:07:03.214Z,99.90
2023-03-13T00:09:31.508Z,99.90
2023-03-13T00:11:59.790Z,99.90
2023-03-13T00:14:28.207Z,99.90
2023-03-13T00:16:59.310Z,99.90
2023-03-13T00:19:27.772Z,99.90
2023-03-13T00:21:56.077Z,99.90
2023-03-13T00:24:24.389Z,99.90
2023-03-13T00:26:52.661Z,99.90
2023-03-13T00:29:21.050Z,99.90
2023-03-13T00:31:49.371Z,99.90
2023-03-13T00:34:19.546Z,99.90
2023-03-13T00:36:47.941Z,99.90
2023-03-13T00:39:16.290Z,99.90
2023-03-13T00:41:45.019Z,99.90
2023-03-13T00:44:13.722Z,99.90
2023-03-13T00:46:42.066Z,99.90
2023-03-13T00:49:10.410Z,99.90
2023-03-13T00:51:40.102Z,99.90
2023-03-13T00:54:08.446Z,99.90
2023-03-13T00:56:37.120Z,99.90
2023-03-13T00:59:05.589Z,99.90
2023-03-13T01:01:35.473Z,99.90
2023-03-13T01:04:06.761Z,99.90
2023-03-13T01:06:37.174Z,99.90
2023-03-13T01:09:08.408Z,99.90
2023-03-13T01:11:39.391Z,99.90
2023-03-13T01:14:10.621Z,99.90
2023-03-13T01:16:39.686Z,99.90
2023-03-13T01:19:13.256Z,99.90
2023-03-13T01:21:42.637Z,99.90
2023-03-13T01:24:12.600Z,99.90
2023-03-13T01:26:41.117Z,99.90
2023-03-13T01:29:09.422Z,99.90
2023-03-13T01:31:38.070Z,99.90
2023-03-13T01:34:09.612Z,99.90
2023-03-13T01:36:38.903Z,99.90
2023-03-13T01:39:07.875Z,99.90
2023-03-13T01:41:39.266Z,99.90
2023-03-13T01:44:19.477Z,99.90
2023-03-13T01:46:47.930Z,99.90
2023-03-13T01:49:28.640Z,99.90
2023-03-13T01:52:14.034Z,99.90
2023-03-13T01:54:53.077Z,99.90
2023-03-13T01:57:28.074Z,99.90
2023-03-13T02:00:00.779Z,99.90
2023-03-13T02:02:30.653Z,99.90
2023-03-13T02:05:02.469Z,99.90
2023-03-13T02:07:34.286Z,99.90
2023-03-13T02:10:03.139Z,99.90
2023-03-13T02:12:34.826Z,99.90
2023-03-13T02:15:06.564Z,99.90
2023-03-13T02:17:36.502Z,99.90
2023-03-13T02:20:05.759Z,99.90
2023-03-13T02:22:40.331Z,99.90
2023-03-13T02:25:19.047Z,99.90
2023-03-13T02:27:49.407Z,99.90
2023-03-13T02:30:17.986Z,99.90
2023-03-13T02:32:47.383Z,99.90
2023-03-13T02:35:18.715Z,99.90
2023-03-13T02:37:51.766Z,99.90
2023-03-13T02:40:26.906Z,99.90
2023-03-13T02:42:59.522Z,99.90
2023-03-13T02:45:28.933Z,99.90
2023-03-13T02:47:57.210Z,99.90
2023-03-13T02:50:25.988Z,99.90
2023-03-13T02:52:59.497Z,99.90
2023-03-13T02:55:31.196Z,99.90
2023-03-13T02:58:00.897Z,99.90
2023-03-13T03:00:33.635Z,99.90
2023-03-13T03:03:02.673Z,99.90
2023-03-13T03:05:30.926Z,99.90
2023-03-13T03:07:59.925Z,99.90
2023-03-13T03:10:29.744Z,99.90
2023-03-13T03:12:59.853Z,99.90
2023-03-13T03:15:28.286Z,99.90
2023-03-13T03:17:56.571Z,99.90
2023-03-13T03:20:24.894Z,99.90
2023-03-13T03:22:53.142Z,99.90
2023-03-13T03:25:21.979Z,99.90
2023-03-13T03:27:50.258Z,99.90
2023-03-13T03:30:20.790Z,99.90
2023-03-13T03:32:49.764Z,99.90
2023-03-13T03:35:18.218Z,99.90
2023-03-13T03:37:46.533Z,99.90
2023-03-13T03:40:15.406Z,99.90
2023-03-13T03:42:44.629Z,99.90
2023-03-13T03:45:13.074Z,99.90
2023-03-13T03:47:42.769Z,99.90
2023-03-13T03:50:12.264Z,99.90
2023-03-13T03:52:51.413Z,99.90
2023-03-13T03:55:20.835Z,99.90
2023-03-13T03:57:49.480Z,99.90
2023-03-13T04:00:27.818Z,99.90
2023-03-13T04:02:57.571Z,99.90
2023-03-13T04:05:26.391Z,99.90
2023-03-13T04:07:54.895Z,99.90
2023-03-13T04:10:23.336Z,99.90
2023-03-13T04:12:51.623Z,99.90
2023-03-13T04:15:20.310Z,99.90
2023-03-13T04:17:48.925Z,99.90
2023-03-13T04:20:20.541Z,99.90
2023-03-13T04:22:49.019Z,99.90
2023-03-13T04:25:18.952Z,99.90
2023-03-13T04:27:47.324Z,99.90
2023-03-13T04:30:18.576Z,99.90
2023-03-13T04:33:09.863Z,99.90
2023-03-13T04:36:03.913Z,99.90
2023-03-13T04:38:58.482Z,99.90
2023-03-13T04:41:45.251Z,99.90
2023-03-13T04:44:52.000Z,99.90
2023-03-13T04:47:42.568Z,99.90
2023-03-13T04:50:29.329Z,99.90
2023-03-13T04:53:16.978Z,99.90
2023-03-13T04:56:03.296Z,99.90
2023-03-13T04:58:51.532Z,99.90
2023-03-13T05:01:39.340Z,99.90
2023-03-13T05:04:36.987Z,99.90
2023-03-13T05:07:23.794Z,99.90
2023-03-13T05:10:13.015Z,99.90
2023-03-13T05:13:06.770Z,99.90
2023-03-13T05:15:54.587Z,99.90
2023-03-13T05:18:31.785Z,99.90
2023-03-13T05:21:29.510Z,99.90
2023-03-13T05:24:17.810Z,99.90
2023-03-13T05:27:05.818Z,99.90
2023-03-13T05:29:53.932Z,99.90
2023-03-13T05:32:40.617Z,99.90
2023-03-13T05:35:29.234Z,99.90
2023-03-13T05:38:26.641Z,99.90
2023-03-13T05:41:16.037Z,99.90
2023-03-13T05:44:11.411Z,99.90
2023-03-13T05:47:04.104Z,99.90
2023-03-13T05:49:35.155Z,99.90
2023-03-13T05:52:03.498Z,99.90
2023-03-13T05:54:52.101Z,99.90
2023-03-13T05:57:20.518Z,99.90
2023-03-13T06:00:08.445Z,99.90
2023-03-13T06:02:49.076Z,99.90
2023-03-13T06:05:23.665Z,99.90
2023-03-13T06:07:52.088Z,99.90
2023-03-13T06:10:20.519Z,99.90
2023-03-13T06:12:54.786Z,99.90
2023-03-13T06:15:26.739Z,99.90
2023-03-13T06:18:02.513Z,99.90
2023-03-13T06:20:30.827Z,99.90
2023-03-13T06:22:59.102Z,99.90
2023-03-13T06:25:27.427Z,99.90
2023-03-13T06:27:55.745Z,99.90
2023-03-13T06:30:24.077Z,99.90
2023-03-13T06:32:53.851Z,99.90
2023-03-13T06:35:22.211Z,99.90
2023-03-13T06:37:50.489Z,99.90
2023-03-13T06:40:19.196Z,99.90
2023-03-13T06:42:47.453Z,99.90
2023-03-13T06:45:15.917Z,99.90
2023-03-13T06:47:44.350Z,99.90
2023-03-13T06:50:14.331Z,99.90
2023-03-13T06:52:44.133Z,99.90
2023-03-13T06:55:13.651Z,99.90
2023-03-13T06:57:42.029Z,99.90
2023-03-13T07:00:12.476Z,99.90
2023-03-13T07:02:40.862Z,99.90
2023-03-13T07:05:10.139Z,99.90
2023-03-13T07:07:39.835Z,99.90
2023-03-13T07:10:10.524Z,99.90
2023-03-13T07:12:39.073Z,99.90
2023-03-13T07:15:08.448Z,99.90
2023-03-13T07:17:37.001Z,99.90
2023-03-13T07:20:06.709Z,99.90
2023-03-13T07:22:35.053Z,99.90
2023-03-13T07:25:04.901Z,99.90
2023-03-13T07:27:33.392Z,99.90
2023-03-13T07:30:01.765Z,99.90
2023-03-13T07:32:34.134Z,99.90
2023-03-13T07:35:03.722Z,99.90
2023-03-13T07:37:32.401Z,99.90
2023-03-13T07:40:00.691Z,99.90
2023-03-13T07:42:30.369Z,99.90
2023-03-13T07:44:59.227Z,99.90
2023-03-13T07:47:27.537Z,99.90
2023-03-13T07:49:56.054Z,99.90
2023-03-13T07:52:25.839Z,99.90
2023-03-13T07:54:54.156Z,99.90
2023-03-13T07:57:22.642Z,99.90
2023-03-13T07:59:52.405Z,99.90
2023-03-13T08:02:20.882Z,99.90
2023-03-13T08:04:52.694Z,99.90
2023-03-13T08:07:21.087Z,99.90
2023-03-13T08:09:49.459Z,99.90
2023-03-13T08:12:17.815Z,99.90
2023-03-13T08:14:46.297Z,99.90
2023-03-13T08:17:15.972Z,99.90
2023-03-13T08:19:44.266Z,99.90
2023-03-13T08:22:12.673Z,99.90
2023-03-13T08:24:40.935Z,99.90
2023-03-13T08:27:09.371Z,99.90
2023-03-13T08:29:37.867Z,99.90
2023-03-13T08:32:06.861Z,99.90
2023-03-13T08:34:37.018Z,99.90
2023-03-13T08:37:06.380Z,99.90
2023-03-13T08:39:34.662Z,99.90
2023-03-13T08:42:03.069Z,99.90
2023-03-13T08:44:31.490Z,99.90
2023-03-13T08:47:00.217Z,99.90
2023-03-13T08:49:28.617Z,99.90
2023-03-13T08:51:58.339Z,99.90
2023-03-13T08:54:26.632Z,99.90
2023-03-13T08:56:54.879Z,99.90
2023-03-13T08:59:23.320Z,99.90
2023-03-13T09:01:51.600Z,99.90
2023-03-13T09:04:20.412Z,99.90
2023-03-13T09:06:48.734Z,99.90
2023-03-13T09:09:18.438Z,99.90
2023-03-13T09:11:46.735Z,99.90
2023-03-13T09:14:15.048Z,99.90
2023-03-13T09:16:44.811Z,99.90
2023-03-13T09:19:13.339Z,99.90
2023-03-13T09:21:41.699Z,99.90
2023-03-13T09:24:10.006Z,99.90
2023-03-13T09:26:42.655Z,99.90
2023-03-13T09:29:14.945Z,99.90
2023-03-13T09:31:43.226Z,99.90
2023-03-13T09:34:11.558Z,99.90
2023-03-13T09:36:39.846Z,99.90
2023-03-13T09:39:08.155Z,99.90
2023-03-13T09:41:44.213Z,99.90
2023-03-13T09:44:18.758Z,99.90
2023-03-13T09:46:57.249Z,99.90
2023-03-13T09:49:32.469Z,99.90
2023-03-13T09:52:08.995Z,99.90
2023-03-13T09:54:40.717Z,99.90
2023-03-13T09:57:17.533Z,99.90
2023-03-13T09:59:51.354Z,99.90
2023-03-13T10:02:29.523Z,99.90
2023-03-13T10:05:04.959Z,99.90
2023-03-13T10:07:33.432Z,99.90
2023-03-13T10:10:02.545Z,99.90
2023-03-13T10:12:40.774Z,99.90
2023-03-13T10:15:39.631Z,99.90
2023-03-13T10:18:17.478Z,99.90
2023-03-13T10:20:50.418Z,99.90
2023-03-13T10:23:25.240Z,99.90
2023-03-13T10:25:53.579Z,99.90
2023-03-13T10:28:23.601Z,99.90
2023-03-13T10:30:59.270Z,99.90
2023-03-13T10:33:29.135Z,99.90
2023-03-13T10:36:07.248Z,99.90
2023-03-13T10:38:46.865Z,99.90
2023-03-13T10:41:27.892Z,99.90
2023-03-13T10:44:01.387Z,99.90
2023-03-13T10:46:31.615Z,99.90
2023-03-13T10:49:04.048Z,99.90
2023-03-13T10:51:38.251Z,99.90
2023-03-13T10:54:17.728Z,99.90
2023-03-13T10:56:46.120Z,99.90
2023-03-13T10:59:25.556Z,99.90
2023-03-13T11:01:54.987Z,99.90
2023-03-13T11:04:31.881Z,99.90
2023-03-13T11:07:03.902Z,99.90
2023-03-13T11:09:33.304Z,99.90
2023-03-13T11:12:06.379Z,99.90
2023-03-13T11:14:36.201Z,99.90
2023-03-13T11:17:11.081Z,99.90
2023-03-13T11:20:02.304Z,99.90
2023-03-13T11:22:49.112Z,99.90
2023-03-13T11:25:29.254Z,99.90
2023-03-13T11:28:07.959Z,99.90
2023-03-13T11:31:04.022Z,99.90
2023-03-13T11:33:43.004Z,99.90
2023-03-13T11:36:19.864Z,99.90
2023-03-13T11:38:54.544Z,99.90
2023-03-13T11:41:43.485Z,99.90
2023-03-13T11:44:36.232Z,99.90
2023-03-13T11:47:23.081Z,99.90
2023-03-13T11:50:02.289Z,99.90
2023-03-13T11:52:44.183Z,99.90
2023-03-13T11:55:30.721Z,99.90
2023-03-13T11:58:10.481Z,99.90
2023-03-13T12:00:43.029Z,99.90
2023-03-13T12:03:20.323Z,99.90
2023-03-13T12:05:53.513Z,99.90
2023-03-13T12:08:26.393Z,99.90
2023-03-13T12:11:05.737Z,99.90
2023-03-13T12:13:37.944Z,99.90
2023-03-13T12:16:13.427Z,99.90
2023-03-13T12:18:45.444Z,99.90
2023-03-13T12:21:20.598Z,99.90
2023-03-13T12:23:56.523Z,99.90
2023-03-13T12:26:34.576Z,99.90
2023-03-13T12:29:13.197Z,99.90
2023-03-13T12:31:46.404Z,99.90
2023-03-13T12:34:21.781Z,99.90
2023-03-13T12:36:56.785Z,99.90
2023-03-13T12:39:32.971Z,99.90
2023-03-13T12:42:24.664Z,99.90
2023-03-13T12:44:53.127Z,99.90
2023-03-13T12:47:32.719Z,99.90
2023-03-13T12:50:23.663Z,99.90
2023-03-13T12:53:26.093Z,99.90
2023-03-13T12:56:19.512Z,99.90
2023-03-13T12:58:51.111Z,99.90
2023-03-13T13:01:30.393Z,99.90
2023-03-13T13:04:01.908Z,99.90
2023-03-13T13:06:53.037Z,99.90
2023-03-13T13:09:24.698Z,99.90
2023-03-13T13:11:55.880Z,99.90
2023-03-13T13:14:58.722Z,99.90
2023-03-13T13:17:47.502Z,99.90
2023-03-13T13:20:47.211Z,99.90
2023-03-13T13:23:26.015Z,99.90
2023-03-13T13:25:56.262Z,99.90
2023-03-13T13:28:30.668Z,99.90
2023-03-13T13:30:59.308Z,99.90
2023-03-13T13:33:38.971Z,99.90
2023-03-13T13:36:30.236Z,99.90
2023-03-13T13:39:00.647Z,99.90
2023-03-13T13:41:38.922Z,99.90
2023-03-13T13:44:30.868Z,99.90
2023-03-13T13:47:02.018Z,99.90
2023-03-13T13:49:36.820Z,99.90
2023-03-13T13:52:36.737Z,99.90
2023-03-13T13:55:45.101Z,99.90
2023-03-13T13:58:18.678Z,99.70
2023-03-13T14:00:52.922Z,99.00
2023-03-13T14:03:23.537Z,99.60
2023-03-13T14:05:55.152Z,99.90
2023-03-13T14:08:29.611Z,99.80
2023-03-13T14:11:16.174Z,98.80
2023-03-13T14:13:44.601Z,99.50
2023-03-13T14:16:24.724Z,99.80
2023-03-13T14:18:54.060Z,99.90
2023-03-13T14:21:24.374Z,99.90
2023-03-13T14:23:52.722Z,99.90
2023-03-13T14:26:24.911Z,99.90
2023-03-13T14:28:54.702Z,99.90
2023-03-13T14:31:25.436Z,99.90
2023-03-13T14:33:54.302Z,99.90
2023-03-13T14:36:22.653Z,99.90
2023-03-13T14:38:56.126Z,99.90
2023-03-13T14:41:30.558Z,99.90
2023-03-13T14:44:05.648Z,99.90
2023-03-13T14:46:37.037Z,99.30
2023-03-13T14:49:15.252Z,99.90
2023-03-13T14:51:43.832Z,99.90
2023-03-13T14:54:27.560Z,99.90
2023-03-13T14:57:16.023Z,99.90
2023-03-13T14:59:44.767Z,99.90
2023-03-13T15:02:21.362Z,99.90
2023-03-13T15:04:51.630Z,99.90
2023-03-13T15:07:20.658Z,99.90
2023-03-13T15:09:51.204Z,99.90
2023-03-13T15:12:23.310Z,99.90
2023-03-13T15:14:52.807Z,99.90
2023-03-13T15:17:23.039Z,99.90
2023-03-13T15:19:53.343Z,99.90
2023-03-13T15:22:28.510Z,99.90
2023-03-13T15:25:06.065Z,99.90
2023-03-13T15:27:36.633Z,99.90
2023-03-13T15:30:06.064Z,99.90
2023-03-13T15:32:36.992Z,99.90
2023-03-13T15:35:22.507Z,99.90
2023-03-13T15:37:51.248Z,99.40
2023-03-13T15:40:20.284Z,99.50
2023-03-13T15:42:50.064Z,99.80
2023-03-13T15:45:18.593Z,99.70
2023-03-13T15:47:48.016Z,99.90
2023-03-13T15:50:18.248Z,99.90
2023-03-13T15:52:46.824Z,99.90
2023-03-13T15:55:15.909Z,99.40
2023-03-13T15:57:47.059Z,98.50
2023-03-13T16:00:21.099Z,98.80
2023-03-13T16:02:49.579Z,98.30
2023-03-13T16:05:18.721Z,98.90
2023-03-13T16:07:47.427Z,98.80
2023-03-13T16:10:22.600Z,98.70
2023-03-13T16:12:53.002Z,99.10
2023-03-13T16:15:23.066Z,98.40
2023-03-13T16:17:51.617Z,98.00
2023-03-13T16:20:23.713Z,98.00
2023-03-13T16:22:53.655Z,98.00
2023-03-13T16:25:22.563Z,97.70
2023-03-13T16:27:51.217Z,97.80
2023-03-13T16:30:23.525Z,97.80
2023-03-13T16:32:52.045Z,97.70
2023-03-13T16:35:20.725Z,97.90
2023-03-13T16:37:50.796Z,98.30
2023-03-13T16:40:21.117Z,98.50
2023-03-13T16:42:49.841Z,98.80
2023-03-13T16:45:18.639Z,98.90
2023-03-13T16:47:48.535Z,99.00
2023-03-13T16:50:24.644Z,99.10
2023-03-13T16:52:53.881Z,99.50
2023-03-13T16:55:28.014Z,99.40
2023-03-13T16:57:56.470Z,99.70
2023-03-13T17:00:26.789Z,99.90
2023-03-13T17:02:57.575Z,99.90
2023-03-13T17:05:26.977Z,99.90
2023-03-13T17:07:55.339Z,99.90
2023-03-13T17:10:25.864Z,99.90
2023-03-13T17:12:54.321Z,99.90
2023-03-13T17:15:23.293Z,99.90
2023-03-13T17:17:52.686Z,99.90
2023-03-13T17:20:24.510Z,99.90
2023-03-13T17:22:53.014Z,99.90
2023-03-13T17:25:21.376Z,99.90
2023-03-13T17:27:49.712Z,99.90
2023-03-13T17:30:22.340Z,99.90
2023-03-13T17:32:51.183Z,99.90
2023-03-13T17:35:20.812Z,99.90
2023-03-13T17:37:51.117Z,99.90
2023-03-13T17:40:21.524Z,99.90
2023-03-13T17:42:50.055Z,99.90
2023-03-13T17:45:18.855Z,99.90
2023-03-13T17:47:49.099Z,99.90
2023-03-13T17:50:20.219Z,99.90
2023-03-13T17:52:50.134Z,99.90
2023-03-13T17:55:18.723Z,99.90
2023-03-13T17:57:48.362Z,99.90
2023-03-13T18:00:22.392Z,99.90
2023-03-13T18:02:51.044Z,99.90
2023-03-13T18:05:19.596Z,99.90
2023-03-13T18:07:48.394Z,99.90
2023-03-13T18:10:22.588Z,99.90
2023-03-13T18:12:51.817Z,99.90
2023-03-13T18:15:20.217Z,99.90
2023-03-13T18:17:48.781Z,99.90
2023-03-13T18:20:20.181Z,99.90
2023-03-13T18:22:48.579Z,99.90
2023-03-13T18:25:17.240Z,99.90
2023-03-13T18:27:47.003Z,99.90
2023-03-13T18:30:17.665Z,99.90
2023-03-13T18:32:46.772Z,99.90
2023-03-13T18:35:15.583Z,99.90
2023-03-13T18:37:46.589Z,99.90
2023-03-13T18:40:19.623Z,99.90
2023-03-13T18:42:49.327Z,99.90
2023-03-13T18:45:19.664Z,99.90
2023-03-13T18:47:48.556Z,99.90
2023-03-13T18:50:24.624Z,99.90
2023-03-13T18:52:53.407Z,99.90
2023-03-13T18:55:21.692Z,99.90
2023-03-13T18:57:51.419Z,99.90
2023-03-13T19:00:23.114Z,99.90
2023-03-13T19:02:51.646Z,99.90
2023-03-13T19:05:20.889Z,99.90
2023-03-13T19:07:49.497Z,99.90
2023-03-13T19:10:21.552Z,99.90
2023-03-13T19:12:51.783Z,99.90
2023-03-13T19:15:21.791Z,99.90
2023-03-13T19:17:50.108Z,99.90
2023-03-13T19:20:20.667Z,99.90
2023-03-13T19:22:49.205Z,99.90
2023-03-13T19:25:17.651Z,99.90
2023-03-13T19:27:46.562Z,99.90
2023-03-13T19:30:22.074Z,99.90
2023-03-13T19:32:50.943Z,99.90
2023-03-13T19:35:21.968Z,99.90
2023-03-13T19:37:50.878Z,99.90
2023-03-13T19:40:22.874Z,99.90
2023-03-13T19:42:51.175Z,99.90
2023-03-13T19:45:22.051Z,99.90
2023-03-13T19:47:50.556Z,99.90
2023-03-13T19:50:21.024Z,99.90
2023-03-13T19:52:49.732Z,99.90
2023-03-13T19:55:18.153Z,99.90
2023-03-13T19:57:46.673Z,99.90
2023-03-13T20:00:22.229Z,99.90
2023-03-13T20:02:52.267Z,99.90
2023-03-13T20:05:20.858Z,99.90
2023-03-13T20:07:49.210Z,99.90
2023-03-13T20:10:17.789Z,99.90
2023-03-13T20:12:46.068Z,99.90
2023-03-13T20:15:14.621Z,99.90
2023-03-13T20:17:44.316Z,99.90
2023-03-13T20:20:13.745Z,99.90
2023-03-13T20:22:42.170Z,99.90
2023-03-13T20:25:11.016Z,99.90
2023-03-13T20:27:39.706Z,99.90
2023-03-13T20:30:09.591Z,99.90
2023-03-13T20:32:43.404Z,99.90
2023-03-13T20:35:19.127Z,99.90
2023-03-13T20:37:47.438Z,99.90
2023-03-13T20:40:15.763Z,99.90
2023-03-13T20:42:44.080Z,99.90
2023-03-13T20:45:12.642Z,99.90
2023-03-13T20:47:40.935Z,99.90
2023-03-13T20:50:10.574Z,99.90
2023-03-13T20:52:40.229Z,99.90
2023-03-13T20:55:09.234Z,99.90
2023-03-13T20:57:38.170Z,99.90
2023-03-13T21:00:07.776Z,99.90
2023-03-13T21:02:36.121Z,99.90
2023-03-13T21:05:04.546Z,99.90
2023-03-13T21:07:33.080Z,99.90
2023-03-13T21:10:02.759Z,99.90
2023-03-13T21:12:31.144Z,99.90
2023-03-13T21:14:59.425Z,99.90
2023-03-13T21:17:27.739Z,99.90
2023-03-13T21:19:56.308Z,99.90
2023-03-13T21:22:27.256Z,99.90
2023-03-13T21:24:55.698Z,99.90
2023-03-13T21:27:25.355Z,99.90
2023-03-13T21:29:54.148Z,99.90
2023-03-13T21:32:22.453Z,99.90
2023-03-13T21:34:51.157Z,99.90
2023-03-13T21:37:19.410Z,99.90
2023-03-13T21:39:51.690Z,99.90
2023-03-13T21:42:20.392Z,99.90
2023-03-13T21:44:50.089Z,99.90
2023-03-13T21:47:24.262Z,99.90
2023-03-13T21:49:53.141Z,99.90
2023-03-13T21:52:23.206Z,99.90
2023-03-13T21:54:51.583Z,99.90
2023-03-13T21:57:19.894Z,99.90
2023-03-13T21:59:49.580Z,99.90
2023-03-13T22:02:17.926Z,99.90
2023-03-13T22:04:46.313Z,99.90
2023-03-13T22:07:14.629Z,99.90
2023-03-13T22:09:42.915Z,99.90
2023-03-13T22:12:11.907Z,99.90
2023-03-13T22:14:40.273Z,99.90
2023-03-13T22:17:16.713Z,99.90
2023-03-13T22:19:45.053Z,99.90
2023-03-13T22:22:13.770Z,99.90
2023-03-13T22:24:42.211Z,99.90
2023-03-13T22:27:10.822Z,99.90
2023-03-13T22:29:39.204Z,99.90
2023-03-13T22:32:07.571Z,99.90
2023-03-13T22:34:37.307Z,99.90
2023-03-13T22:37:05.605Z,99.90
2023-03-13T22:39:34.035Z,99.90
2023-03-13T22:42:02.326Z,99.90
2023-03-13T22:44:30.613Z,99.90
2023-03-13T22:46:58.928Z,99.90
2023-03-13T22:49:27.242Z,99.90
2023-03-13T22:51:58.971Z,99.90
2023-03-13T22:54:27.273Z,99.90
2023-03-13T22:56:55.569Z,99.90
2023-03-13T22:59:23.963Z,99.90
2023-03-13T23:01:52.231Z,99.90
2023-03-13T23:04:20.524Z,99.90
2023-03-13T23:06:48.790Z,99.90
2023-03-13T23:09:18.491Z,99.90
2023-03-13T23:11:46.790Z,99.90
2023-03-13T23:14:15.080Z,99.90
2023-03-13T23:16:43.524Z,99.90
2023-03-13T23:19:11.786Z,99.90
2023-03-13T23:21:40.119Z,99.90
2023-03-13T23:24:09.161Z,99.90
2023-03-13T23:26:38.994Z,99.90
2023-03-13T23:29:07.446Z,99.90
2023-03-13T23:31:35.734Z,99.90
2023-03-13T23:34:04.067Z,99.90
2023-03-13T23:36:32.377Z,99.90
2023-03-13T23:39:02.812Z,99.90
2023-03-13T23:41:31.409Z,99.90
2023-03-13T23:44:01.394Z,99.90
2023-03-13T23:46:29.837Z,99.90
2023-03-13T23:48:59.633Z,99.90
2023-03-13T23:51:28.403Z,99.90
2023-03-13T23:53:56.689Z,99.90
2023-03-13T23:56:25.684Z,99.90
2023-03-13T23:58:55.202Z,99.90
